Ottignies, Belgium
Current Conditions -  °F | °C
As of 4:25 AM on Thursday 29 Jan 2015 (Local Time) from EBBE Reporting Station
Broken Clouds Broken Clouds  
Wind Chill: 26°   Ceiling: 3800
Heat Index: 36°   Visibility: 6mi
Dew Point: 30°   Wind: 16mph
Humidity: 81%   Direction: 220°SW
Pressure: 29.41"   Gusts: NA
Location:  50.67°N, 4.57°E
Report Text: EBBE 290325Z AUTO 22014KT 9999 FEW032/// BKN038/// 02/M01 Q0996 BLU
Loading
Personal Weather Stations






























Interactive Weather Map New forecast layout! Learn more

10-Day Weather Forecast

Advertisements
Track Severe Weather on mobile